createdAt,value
2019-04-25T00:02:11.538Z,39.30
2019-04-25T00:07:28.294Z,39.50
2019-04-25T00:12:44.583Z,39.70
2019-04-25T00:18:02.336Z,39.70
2019-04-25T00:23:18.810Z,39.80
2019-04-25T00:28:34.569Z,39.90
2019-04-25T00:33:50.324Z,40.00
2019-04-25T00:39:07.814Z,39.90
2019-04-25T00:44:23.833Z,39.90
2019-04-25T00:49:39.492Z,39.80
2019-04-25T00:54:55.622Z,40.00
2019-04-25T01:00:41.487Z,40.30
2019-04-25T01:05:57.564Z,39.90
2019-04-25T01:11:13.523Z,40.00
2019-04-25T01:16:29.422Z,40.00
2019-04-25T01:21:45.766Z,40.10
2019-04-25T01:27:03.365Z,40.20
2019-04-25T01:32:26.546Z,40.30
2019-04-25T01:37:51.422Z,40.40
2019-04-25T01:43:26.605Z,40.40
2019-04-25T01:48:43.353Z,40.60
2019-04-25T01:53:59.275Z,40.70
2019-04-25T01:59:15.186Z,40.80
2019-04-25T02:04:31.966Z,40.80
2019-04-25T02:09:47.963Z,41.00
2019-04-25T02:15:05.921Z,41.10
2019-04-25T02:20:21.834Z,41.20
2019-04-25T02:25:37.715Z,41.20
2019-04-25T02:30:57.347Z,41.40
2019-04-25T02:36:10.544Z,41.40
2019-04-25T02:41:26.432Z,41.50
2019-04-25T02:47:16.151Z,41.70
2019-04-25T02:52:46.200Z,41.70
2019-04-25T02:58:04.841Z,41.80
2019-04-25T03:03:19.124Z,41.90
2019-04-25T03:08:35.546Z,42.00
2019-04-25T03:13:54.341Z,42.10
2019-04-25T03:19:46.084Z,42.30
2019-04-25T03:25:03.969Z,42.30
2019-04-25T03:30:19.538Z,42.50
2019-04-25T03:35:35.295Z,42.80
2019-04-25T03:40:51.018Z,42.80
2019-04-25T03:46:10.331Z,42.90
2019-04-25T03:51:26.095Z,43.20
2019-04-25T03:56:51.919Z,43.20
2019-04-25T04:02:01.222Z,43.40
2019-04-25T04:07:17.818Z,43.60
2019-04-25T04:12:33.965Z,43.70
2019-04-25T04:18:01.025Z,43.90
2019-04-25T04:23:29.056Z,44.10
2019-04-25T04:28:44.951Z,44.40
2019-04-25T04:34:00.732Z,44.40
2019-04-25T04:39:16.813Z,44.60
2019-04-25T04:44:34.368Z,44.90
2019-04-25T04:49:50.312Z,45.10
2019-04-25T04:55:09.669Z,45.30
2019-04-25T05:00:25.298Z,45.50
2019-04-25T05:05:57.100Z,45.80
2019-04-25T05:11:15.438Z,45.90
2019-04-25T05:16:30.622Z,46.20
2019-04-25T05:21:46.095Z,46.30
2019-04-25T05:27:01.925Z,46.50
2019-04-25T05:32:18.196Z,46.70
2019-04-25T05:37:33.805Z,46.90
2019-04-25T05:43:03.805Z,47.10
2019-04-25T05:48:19.793Z,47.10
2019-04-25T05:53:35.106Z,47.40
2019-04-25T05:58:51.316Z,47.50
2019-04-25T06:04:07.001Z,47.50
2019-04-25T06:09:44.546Z,47.60
2019-04-25T06:15:00.521Z,47.80
2019-04-25T06:20:19.969Z,47.70
2019-04-25T06:25:39.691Z,47.90
2019-04-25T06:30:54.111Z,48.00
2019-04-25T06:36:10.998Z,48.10
2019-04-25T06:41:27.078Z,48.20
2019-04-25T06:47:04.428Z,48.30
2019-04-25T06:52:21.523Z,48.30
2019-04-25T06:57:37.469Z,48.30
2019-04-25T07:02:53.416Z,48.40
2019-04-25T07:08:09.075Z,48.30
2019-04-25T07:13:25.718Z,48.30
2019-04-25T07:18:43.596Z,48.30
2019-04-25T07:23:59.555Z,48.20
2019-04-25T07:29:25.770Z,48.20
2019-04-25T07:34:43.786Z,48.10
2019-04-25T07:40:00.550Z,48.00
2019-04-25T07:45:17.767Z,48.00
2019-04-25T07:50:34.327Z,47.90
2019-04-25T07:55:51.036Z,47.80
2019-04-25T08:01:07.748Z,47.80
2019-04-25T08:06:24.249Z,47.90
2019-04-25T08:11:40.025Z,47.70
2019-04-25T08:16:58.387Z,47.70
2019-04-25T08:22:14.349Z,47.80
2019-04-25T08:27:31.046Z,47.60
2019-04-25T08:32:46.818Z,47.50
2019-04-25T08:38:05.831Z,47.60
2019-04-25T08:43:22.054Z,47.30
2019-04-25T08:49:06.093Z,47.30
2019-04-25T08:54:47.184Z,47.20
2019-04-25T09:00:09.975Z,47.20
2019-04-25T09:05:40.492Z,47.10
2019-04-25T09:10:56.125Z,47.20
2019-04-25T09:16:13.513Z,47.20
2019-04-25T09:21:29.524Z,47.10
2019-04-25T09:26:45.393Z,47.10
2019-04-25T09:32:01.699Z,47.10
2019-04-25T09:37:19.510Z,47.20
2019-04-25T09:42:35.753Z,47.10
2019-04-25T09:47:53.369Z,47.10
2019-04-25T09:53:21.801Z,47.20
2019-04-25T09:58:48.304Z,47.20
2019-04-25T10:04:15.107Z,47.30
2019-04-25T10:09:31.018Z,47.20
2019-04-25T10:15:39.464Z,47.20
2019-04-25T10:20:55.411Z,47.30
2019-04-25T10:26:13.254Z,47.30
2019-04-25T10:31:29.289Z,47.30
2019-04-25T10:36:45.481Z,47.30
2019-04-25T10:42:03.483Z,47.30
2019-04-25T10:47:18.835Z,47.30
2019-04-25T10:52:34.758Z,46.90
2019-04-25T10:57:51.076Z,46.90
2019-04-25T11:03:33.414Z,46.80
2019-04-25T11:08:49.612Z,46.70
2019-04-25T11:14:13.546Z,46.40
2019-04-25T11:19:34.055Z,46.30
2019-04-25T11:24:52.979Z,46.10
2019-04-25T11:30:11.492Z,46.10
2019-04-25T11:35:28.436Z,46.00
2019-04-25T11:40:59.302Z,45.90
2019-04-25T11:46:15.551Z,45.60
2019-04-25T11:51:31.867Z,45.60
2019-04-25T11:56:47.562Z,45.50
2019-04-25T12:02:05.917Z,45.30
2019-04-25T12:07:21.541Z,45.20
2019-04-25T12:12:37.391Z,45.10
2019-04-25T12:17:54.738Z,44.90
2019-04-25T12:23:10.780Z,44.50
2019-04-25T12:28:26.668Z,44.20
2019-04-25T12:33:43.424Z,44.00
2019-04-25T12:38:59.513Z,44.00
2019-04-25T12:44:34.025Z,43.70
2019-04-25T12:49:51.257Z,43.60
2019-04-25T12:55:07.800Z,43.80
2019-04-25T13:00:27.136Z,43.10
2019-04-25T13:05:44.224Z,42.60
2019-04-25T13:11:07.818Z,42.50
2019-04-25T13:16:19.189Z,41.80
2019-04-25T13:21:35.132Z,41.20
2019-04-25T13:27:00.611Z,40.80
2019-04-25T13:32:37.884Z,40.30
2019-04-25T13:37:54.400Z,40.10
2019-04-25T13:43:10.408Z,39.80
2019-04-25T13:48:29.458Z,39.10
2019-04-25T13:53:45.187Z,39.00
2019-04-25T13:59:01.903Z,38.90
2019-04-25T14:04:17.833Z,38.90
2019-04-25T14:09:34.752Z,38.90
2019-04-25T14:14:50.770Z,38.80
2019-04-25T14:20:19.123Z,38.80
2019-04-25T14:25:35.372Z,38.80
2019-04-25T14:30:51.475Z,38.20
2019-04-25T14:36:07.034Z,37.70
2019-04-25T14:41:23.767Z,37.40
2019-04-25T14:46:40.089Z,31.20
2019-04-25T14:51:55.572Z,29.20
2019-04-25T14:57:24.040Z,30.10
2019-04-25T15:02:40.768Z,30.10
2019-04-25T15:07:56.667Z,28.70
2019-04-25T15:13:12.812Z,28.50
2019-04-25T15:18:28.828Z,28.00
2019-04-25T15:23:44.739Z,27.60
2019-04-25T15:29:00.111Z,27.40
2019-04-25T15:34:16.136Z,27.20
2019-04-25T15:39:50.086Z,26.40
2019-04-25T15:45:23.814Z,25.70
2019-04-25T15:50:41.052Z,26.30
2019-04-25T15:55:57.390Z,26.00
2019-04-25T16:01:13.312Z,27.70
2019-04-25T16:06:29.815Z,28.50
2019-04-25T16:11:45.604Z,29.00
2019-04-25T16:17:01.415Z,29.20
2019-04-25T16:22:17.183Z,29.30
2019-04-25T16:27:32.773Z,29.40
2019-04-25T16:32:48.378Z,29.40
2019-04-25T16:38:05.385Z,29.30
2019-04-25T16:43:26.077Z,29.30
2019-04-25T16:48:41.644Z,29.10
2019-04-25T16:53:57.700Z,29.10
2019-04-25T16:59:14.999Z,29.10
2019-04-25T17:04:31.196Z,29.00
2019-04-25T17:09:47.244Z,28.90
2019-04-25T17:15:21.773Z,29.00
2019-04-25T17:20:42.188Z,29.00
2019-04-25T17:25:58.281Z,28.90
2019-04-25T17:31:28.293Z,29.00
2019-04-25T17:37:01.680Z,29.00
2019-04-25T17:42:17.700Z,29.00
2019-04-25T17:47:34.489Z,29.00
2019-04-25T17:52:50.875Z,28.90
2019-04-25T17:58:06.703Z,29.20
2019-04-25T18:03:22.898Z,28.90
2019-04-25T18:08:39.572Z,28.90
2019-04-25T18:13:55.620Z,28.90
2019-04-25T18:19:36.531Z,29.00
2019-04-25T18:25:14.244Z,29.00
2019-04-25T18:30:30.845Z,29.00
2019-04-25T18:35:49.162Z,29.00
2019-04-25T18:41:13.823Z,29.00
2019-04-25T18:46:34.196Z,29.00
2019-04-25T18:51:57.599Z,29.20
2019-04-25T18:57:34.412Z,29.20
2019-04-25T19:03:02.361Z,29.20
2019-04-25T19:08:17.832Z,29.20
2019-04-25T19:13:35.470Z,29.30
2019-04-25T19:18:53.664Z,29.30
2019-04-25T19:24:09.864Z,29.30
2019-04-25T19:29:25.730Z,29.50
2019-04-25T19:34:42.540Z,29.90
2019-04-25T19:40:12.898Z,30.50
2019-04-25T19:45:33.255Z,31.20
2019-04-25T19:50:48.850Z,31.60
2019-04-25T19:56:04.791Z,32.10
2019-04-25T20:01:20.665Z,32.50
2019-04-25T20:06:53.961Z,32.80
2019-04-25T20:12:10.375Z,33.00
2019-04-25T20:17:25.895Z,33.30
2019-04-25T20:22:41.652Z,33.60
2019-04-25T20:27:57.662Z,33.70
2019-04-25T20:33:13.335Z,33.90
2019-04-25T20:38:29.230Z,34.10
2019-04-25T20:43:45.210Z,34.10
2019-04-25T20:49:01.359Z,34.20
2019-04-25T20:54:17.282Z,34.20
2019-04-25T20:59:33.659Z,34.20
2019-04-25T21:04:50.078Z,34.20
2019-04-25T21:10:06.583Z,34.30
2019-04-25T21:15:42.445Z,34.30
2019-04-25T21:20:59.198Z,34.40
2019-04-25T21:26:15.523Z,34.40
2019-04-25T21:31:31.427Z,34.50
2019-04-25T21:36:48.377Z,34.60
2019-04-25T21:42:23.353Z,34.70
2019-04-25T21:47:39.313Z,34.70
2019-04-25T21:52:55.385Z,34.40
2019-04-25T21:58:12.992Z,34.90
2019-04-25T22:03:29.227Z,34.90
2019-04-25T22:08:45.436Z,35.00
2019-04-25T22:14:03.448Z,35.10
2019-04-25T22:19:22.343Z,35.30
2019-04-25T22:24:38.569Z,35.30
2019-04-25T22:30:01.408Z,35.40
2019-04-25T22:35:24.390Z,35.50
2019-04-25T22:40:40.485Z,35.60
2019-04-25T22:45:56.531Z,35.60
2019-04-25T22:51:12.571Z,35.80
2019-04-25T22:56:30.926Z,35.80
2019-04-25T23:01:54.875Z,35.90
2019-04-25T23:07:12.311Z,36.00
2019-04-25T23:12:28.074Z,36.10
2019-04-25T23:17:43.977Z,36.20
2019-04-25T23:23:01.012Z,36.30
2019-04-25T23:28:20.464Z,36.50
2019-04-25T23:33:36.550Z,36.50
2019-04-25T23:38:52.721Z,36.50
2019-04-25T23:44:09.092Z,36.70
2019-04-25T23:49:25.980Z,36.70
2019-04-25T23:54:41.818Z,36.80
2019-04-25T23:59:57.534Z,37.00
